Aurora, MN (55705)

4:39 AM CST on December 07, 2016 (GMT -0600)
KMNAUROR2 | | Change Station

Elev 1470 ft 47.52 °N, 92.24 °W | Updated 7 seconds ago

Light Snow
Light Snow
17.9 °F
Feels Like 12 °F
N
4.0
Wind Variable Wind from WSW
Gusts 14.0 mph

Today
High -- | Low -- °F
--% Chance of Precip.
Yesterday
High -- | Low -- °F
Precip. -- in
Pressure 29.59 in
Visibility 4.0 miles
Clouds Overcast 900 ft
Windchill 12 °F
Dew Point 16 °F
Humidity 92%
Rainfall 0.00 in
Snow Depth Not available.
7:43 AM 4:17 PM
Waxing Crescent, 51% visible
METAR KEVM 071033Z AUTO 24012KT 4SM -SN OVC009 M07/M09 A2959 RMK AO2 T10671091
Pressure 29.59 in
Visibility 4.0 miles
Clouds Overcast 900 ft
Windchill 12 °F
Dew Point 16 °F
Humidity 92%
Rainfall 0.00 in
Snow Depth Not available.
7:43 AM 4:17 PM
Waxing Crescent, 51% visible
METAR KEVM 071033Z AUTO 24012KT 4SM -SN OVC009 M07/M09 A2959 RMK AO2 T10671091

10-Day Weather Forecast

Almanac

Astronomy

Dec. 07, 2016 Rise Set
Actual Time
Civil Twilight
Nautical Twilight
Astronomical Twilight
Moon
Length of Visible Light
Length of Day
Tomorrow will be .
, % of the Moon is Illuminated

Today's Extremes

State Highs State Lows

Community

WunderPhotos

Upload Photos

1,956,111 photos uploaded!

WunderBlog® & News

Nearby

Air Quality

  Air Quality AQ Index Pollutant
Not available.

Snow Depth

Station Depth Elevation

Earthquake Activity

City Distance Mag. Time & Date
Minimum magnitude displayed is 2.5.

Coastal Water Temperatures

Place Temperature

Stations

Nearby Weather Stations

Station Location Temp. Windchill Dew Point Humidity Wind Precip. Elev Updated Type
                   

Watches & Warnings

There are currently no watches in effect.